Time;durP1;ratioP1;P1;durP2;ratioP2;P2;SDS_P1;SDS_P2;PMS_P1;PMS_P2;Temp;Humidity;BMP_temperature;BMP_pressure;BME280_temperature;BME280_humidity;BME280_pressure;Samples;Min_cycle;Max_cycle;Signal;HPM_P1;HPM_P2
2022/10/25 00:01:14;;;;;;;3.33;3.03;;;;;;;;;;5043891;28;20065;-58
2022/10/25 00:03:39;;;;;;;;;;;;;;;;;;5038932;28;20049;-59
2022/10/25 00:06:09;;;;;;;4.85;3.30;;;;;;;;;;5040447;28;19974;-59
2022/10/25 00:08:35;;;;;;;4.85;2.53;;;;;;;;;;5034373;28;20045;-59
2022/10/25 00:11:01;;;;;;;4.38;2.75;;;;;;;;;;5049957;28;20051;-58
2022/10/25 00:13:27;;;;;;;4.55;2.75;;;;;;;;;;5042259;28;20704;-58
2022/10/25 00:15:54;;;;;;;3.78;2.90;;;;;;;;;;5033028;28;20160;-59
2022/10/25 00:18:20;;;;;;;5.57;3.20;;;;;;;;;;5034261;28;20120;-59
2022/10/25 00:20:46;;;;;;;4.75;2.67;;;;;;;;;;5037527;28;20041;-59
2022/10/25 00:23:12;;;;;;;4.45;2.65;;;;;;;;;;5034786;28;20055;-58
2022/10/25 00:25:38;;;;;;;5.25;2.85;;;;;;;;;;5038156;28;20103;-58
2022/10/25 00:28:04;;;;;;;2.67;2.47;;;;;;;;;;5048617;28;20075;-58
2022/10/25 00:30:31;;;;;;;7.72;3.15;;;;;;;;;;5041410;28;20559;-59
2022/10/25 00:32:57;;;;;;;5.68;3.03;;;;;;;;;;5029445;28;20055;-59
2022/10/25 00:35:23;;;;;;;4.65;2.88;;;;;;;;;;5039461;28;20094;-58
2022/10/25 00:37:49;;;;;;;6.78;3.75;;;;;;;;;;5029409;28;20053;-59
2022/10/25 00:40:15;;;;;;;3.58;2.97;;;;;;;;;;5035273;28;20049;-58
2022/10/25 00:42:41;;;;;;;3.42;3.13;;;;;;;;;;5033145;28;20049;-59
2022/10/25 00:45:18;;;;;;;4.90;2.95;;;;;;;;;;5034134;28;20132;-59
2022/10/25 00:47:45;;;;;;;5.13;3.50;;;;;;;;;;5035322;28;20419;-59
2022/10/25 00:50:34;;;;;;;3.17;2.88;;;;;;;;;;5039492;28;20492;-59
2022/10/25 00:53:21;;;;;;;5.65;3.78;;;;;;;;;;5034782;28;20103;-59
2022/10/25 00:55:51;;;;;;;4.22;3.60;;;;;;;;;;5030858;28;20049;-58
2022/10/25 00:58:19;;;;;;;9.90;5.32;;;;;;;;;;5039326;28;20053;-59
2022/10/25 01:00:45;;;;;;;7.68;6.22;;;;;;;;;;5033331;28;20562;-59
2022/10/25 01:03:13;;;;;;;8.77;6.18;;;;;;;;;;5038661;28;20049;-58
2022/10/25 01:05:39;;;;;;;8.52;4.93;;;;;;;;;;5046398;28;20129;-59
2022/10/25 01:08:05;;;;;;;10.32;7.35;;;;;;;;;;5043445;28;20060;-58
2022/10/25 01:10:32;;;;;;;7.38;5.85;;;;;;;;;;5038358;28;20049;-59
2022/10/25 01:12:59;;;;;;;8.75;5.57;;;;;;;;;;5039384;28;20052;-59
2022/10/25 01:15:28;;;;;;;7.88;5.38;;;;;;;;;;5040107;28;20056;-59
2022/10/25 01:18:03;;;;;;;10.15;6.88;;;;;;;;;;5035556;28;20045;-59
2022/10/25 01:20:43;;;;;;;8.35;6.78;;;;;;;;;;5042391;28;20049;-58
2022/10/25 01:23:21;;;;;;;9.75;6.47;;;;;;;;;;5042344;28;20062;-58
2022/10/25 01:26:06;;;;;;;10.95;7.60;;;;;;;;;;5033494;28;20045;-59
2022/10/25 01:28:47;;;;;;;9.45;6.43;;;;;;;;;;5037268;28;20153;-58
2022/10/25 01:31:25;;;;;;;8.45;5.90;;;;;;;;;;5033477;28;20041;-59
2022/10/25 01:34:05;;;;;;;11.32;6.78;;;;;;;;;;5037861;28;20049;-59
2022/10/25 01:36:47;;;;;;;8.23;6.97;;;;;;;;;;5036165;28;20534;-58
2022/10/25 01:39:13;;;;;;;7.40;6.45;;;;;;;;;;5037781;28;20045;-59
2022/10/25 01:41:46;;;;;;;10.13;6.88;;;;;;;;;;5036936;28;20680;-59
2022/10/25 01:44:12;;;;;;;9.02;6.88;;;;;;;;;;5042301;28;20085;-59
2022/10/25 01:46:41;;;;;;;11.20;6.75;;;;;;;;;;5033692;28;20130;-58
2022/10/25 01:49:10;;;;;;;8.07;6.90;;;;;;;;;;5036322;28;20057;-58
2022/10/25 01:51:36;;;;;;;10.38;6.20;;;;;;;;;;5036713;28;20048;-59
2022/10/25 01:54:02;;;;;;;10.02;6.47;;;;;;;;;;5035844;28;20075;-59
2022/10/25 01:56:33;;;;;;;8.88;6.32;;;;;;;;;;5033753;28;20045;-59
2022/10/25 01:58:59;;;;;;;12.00;7.05;;;;;;;;;;5037172;28;20103;-58
2022/10/25 02:01:37;;;;;;;11.27;6.00;;;;;;;;;;5038088;28;20152;-58
2022/10/25 02:04:11;;;;;;;8.35;5.90;;;;;;;;;;5041188;28;20088;-58
2022/10/25 02:07:02;;;;;;;8.88;5.07;;;;;;;;;;5034641;28;20536;-58
2022/10/25 02:09:36;;;;;;;5.63;4.85;;;;;;;;;;5033527;28;20053;-58
2022/10/25 02:12:04;;;;;;;6.80;4.93;;;;;;;;;;5035791;28;20045;-59
2022/10/25 02:14:33;;;;;;;6.53;5.20;;;;;;;;;;5147374;22;20360;-64
2022/10/25 02:17:05;;;;;;;5.28;4.53;;;;;;;;;;5005396;28;20910;-64
2022/10/25 02:19:36;;;;;;;5.13;4.63;;;;;;;;;;4993466;28;20049;-64
2022/10/25 02:22:03;;;;;;;6.80;5.23;;;;;;;;;;4992731;28;20049;-64
2022/10/25 02:24:30;;;;;;;5.57;4.40;;;;;;;;;;4996223;28;20662;-65
2022/10/25 02:26:58;;;;;;;6.82;5.07;;;;;;;;;;5011232;28;20042;-65
2022/10/25 02:29:25;;;;;;;7.38;4.95;;;;;;;;;;5001049;28;20079;-64
2022/10/25 02:31:51;;;;;;;6.68;4.38;;;;;;;;;;5023800;28;20095;-64
2022/10/25 02:34:18;;;;;;;6.95;4.90;;;;;;;;;;5025487;28;20042;-64
2022/10/25 02:36:47;;;;;;;8.50;5.15;;;;;;;;;;5008334;28;20042;-65
2022/10/25 02:39:13;;;;;;;4.78;4.38;;;;;;;;;;5006361;28;20042;-65
2022/10/25 02:41:39;;;;;;;6.13;4.80;;;;;;;;;;4988225;28;20042;-65
2022/10/25 02:44:05;;;;;;;6.63;4.95;;;;;;;;;;5006338;28;20049;-65
2022/10/25 02:46:31;;;;;;;9.10;5.20;;;;;;;;;;5006534;28;20053;-65
2022/10/25 02:48:57;;;;;;;6.05;4.35;;;;;;;;;;4988344;28;20127;-65
2022/10/25 02:51:23;;;;;;;8.70;4.55;;;;;;;;;;5006028;28;20089;-65
2022/10/25 02:53:49;;;;;;;7.28;5.28;;;;;;;;;;5006461;28;20432;-65
2022/10/25 02:56:18;;;;;;;8.55;5.15;;;;;;;;;;4987360;28;20045;-65
2022/10/25 02:58:44;;;;;;;8.57;5.28;;;;;;;;;;5020417;28;20144;-65
2022/10/25 03:01:11;;;;;;;8.25;5.07;;;;;;;;;;4997255;28;20508;-65
2022/10/25 03:03:37;;;;;;;9.05;3.97;;;;;;;;;;5006323;28;20618;-65
2022/10/25 03:06:04;;;;;;;7.25;4.10;;;;;;;;;;4988880;28;20046;-65
2022/10/25 03:08:30;;;;;;;5.55;4.15;;;;;;;;;;4987639;28;20048;-65
2022/10/25 03:10:56;;;;;;;5.25;3.15;;;;;;;;;;5006956;28;20045;-65
2022/10/25 03:13:22;;;;;;;7.10;2.95;;;;;;;;;;5005687;28;20049;-65
2022/10/25 03:15:48;;;;;;;3.33;2.63;;;;;;;;;;5005210;28;20485;-65
2022/10/25 03:18:14;;;;;;;4.10;2.63;;;;;;;;;;5006058;28;20058;-65
2022/10/25 03:20:41;;;;;;;4.60;2.75;;;;;;;;;;5006120;28;20157;-65
2022/10/25 03:23:07;;;;;;;6.22;3.53;;;;;;;;;;5005526;28;20050;-65
2022/10/25 03:25:33;;;;;;;4.13;3.25;;;;;;;;;;5005845;28;20050;-64
2022/10/25 03:27:59;;;;;;;4.72;3.53;;;;;;;;;;4988044;28;20049;-65
2022/10/25 03:30:25;;;;;;;5.38;3.17;;;;;;;;;;5011077;28;20400;-65
2022/10/25 03:32:51;;;;;;;4.93;3.08;;;;;;;;;;5012740;28;20045;-65
2022/10/25 03:35:17;;;;;;;4.50;3.10;;;;;;;;;;4987579;28;20060;-65
2022/10/25 03:37:43;;;;;;;4.20;2.53;;;;;;;;;;4987483;28;20563;-65
2022/10/25 03:40:09;;;;;;;3.80;2.65;;;;;;;;;;5005706;28;20038;-65
2022/10/25 03:42:35;;;;;;;4.80;2.85;;;;;;;;;;5005394;28;20401;-65
2022/10/25 03:45:01;;;;;;;4.78;2.63;;;;;;;;;;5005408;28;20042;-65
2022/10/25 03:47:27;;;;;;;5.13;3.28;;;;;;;;;;5009236;28;20056;-65
2022/10/25 03:49:54;;;;;;;4.93;2.30;;;;;;;;;;5010651;28;20037;-65
2022/10/25 03:52:20;;;;;;;4.57;2.53;;;;;;;;;;5012548;28;20598;-65
2022/10/25 03:54:46;;;;;;;4.28;2.95;;;;;;;;;;5015268;28;20128;-65
2022/10/25 03:57:12;;;;;;;6.03;3.00;;;;;;;;;;5002016;28;20627;-65
2022/10/25 03:59:38;;;;;;;3.05;2.45;;;;;;;;;;4997236;28;20063;-65
2022/10/25 04:02:04;;;;;;;5.90;3.17;;;;;;;;;;5009668;28;20056;-65
2022/10/25 04:04:30;;;;;;;2.90;2.60;;;;;;;;;;4987618;28;20037;-66
2022/10/25 04:06:56;;;;;;;5.03;2.40;;;;;;;;;;4997587;28;20408;-65
2022/10/25 04:09:22;;;;;;;3.70;2.80;;;;;;;;;;5013897;28;20046;-65
2022/10/25 04:11:48;;;;;;;9.32;3.40;;;;;;;;;;5011295;28;20041;-65
2022/10/25 04:14:14;;;;;;;4.43;3.58;;;;;;;;;;4996301;28;20045;-65
2022/10/25 04:16:40;;;;;;;6.88;3.50;;;;;;;;;;5014013;28;20099;-65
2022/10/25 04:19:06;;;;;;;6.22;3.17;;;;;;;;;;4996725;28;20053;-65
2022/10/25 04:21:32;;;;;;;4.05;3.42;;;;;;;;;;5007914;28;20052;-65
2022/10/25 04:23:58;;;;;;;5.88;3.55;;;;;;;;;;4995007;28;20050;-67
2022/10/25 04:26:24;;;;;;;3.58;2.80;;;;;;;;;;4996061;28;20477;-65
2022/10/25 04:28:51;;;;;;;9.15;2.90;;;;;;;;;;5001271;28;20172;-65
2022/10/25 04:31:17;;;;;;;6.18;3.40;;;;;;;;;;5010374;28;20057;-67
2022/10/25 04:33:43;;;;;;;7.07;4.00;;;;;;;;;;4996070;28;20092;-65
2022/10/25 04:36:09;;;;;;;7.32;3.10;;;;;;;;;;5004845;28;20053;-65
2022/10/25 04:38:35;;;;;;;5.18;2.90;;;;;;;;;;5012725;28;20039;-65
2022/10/25 04:41:01;;;;;;;5.65;3.60;;;;;;;;;;4990137;28;20042;-65
2022/10/25 04:43:28;;;;;;;4.78;2.55;;;;;;;;;;5004601;28;20381;-65
2022/10/25 04:45:54;;;;;;;3.92;2.95;;;;;;;;;;5016312;28;20084;-65
2022/10/25 04:48:20;;;;;;;4.80;3.13;;;;;;;;;;4996569;28;20390;-65
2022/10/25 04:50:47;;;;;;;3.70;2.97;;;;;;;;;;4995814;28;20377;-65
2022/10/25 04:53:13;;;;;;;5.78;3.28;;;;;;;;;;5009391;28;20046;-65
2022/10/25 04:55:39;;;;;;;7.40;4.22;;;;;;;;;;5015937;28;20068;-65
2022/10/25 04:58:05;;;;;;;8.43;3.55;;;;;;;;;;5001516;28;20053;-65
2022/10/25 05:00:31;;;;;;;3.92;2.88;;;;;;;;;;4991168;28;20053;-66
2022/10/25 05:02:57;;;;;;;4.28;2.95;;;;;;;;;;5013573;28;20045;-65
2022/10/25 05:05:23;;;;;;;5.00;2.80;;;;;;;;;;4995915;28;20144;-65
2022/10/25 05:07:50;;;;;;;4.20;2.90;;;;;;;;;;5011554;28;20137;-65
2022/10/25 05:10:16;;;;;;;5.50;2.67;;;;;;;;;;5017926;28;20042;-65
2022/10/25 05:12:42;;;;;;;3.15;2.38;;;;;;;;;;4996887;28;20073;-65
2022/10/25 05:15:09;;;;;;;4.00;2.00;;;;;;;;;;4991326;28;20118;-66
2022/10/25 05:17:35;;;;;;;4.85;3.10;;;;;;;;;;5000684;28;20064;-65
2022/10/25 05:20:01;;;;;;;3.67;2.20;;;;;;;;;;4997351;28;20042;-65
2022/10/25 05:22:28;;;;;;;3.92;2.05;;;;;;;;;;5012869;28;20052;-65
2022/10/25 05:24:54;;;;;;;4.80;2.40;;;;;;;;;;4995068;28;20037;-65
2022/10/25 05:27:20;;;;;;;3.63;2.40;;;;;;;;;;5011346;28;20099;-65
2022/10/25 05:29:46;;;;;;;2.95;2.22;;;;;;;;;;5016459;28;20060;-65
2022/10/25 05:32:12;;;;;;;4.00;2.70;;;;;;;;;;5011768;28;20077;-65
2022/10/25 05:34:38;;;;;;;4.00;2.92;;;;;;;;;;5015978;28;20072;-65
2022/10/25 05:37:04;;;;;;;4.55;3.08;;;;;;;;;;5009546;28;20081;-65
2022/10/25 05:39:30;;;;;;;5.40;3.17;;;;;;;;;;5012636;28;20046;-65
2022/10/25 05:41:56;;;;;;;5.03;2.88;;;;;;;;;;4991383;28;20405;-65
2022/10/25 05:44:22;;;;;;;2.35;1.95;;;;;;;;;;4998512;28;20042;-65
2022/10/25 05:46:48;;;;;;;3.65;2.85;;;;;;;;;;5014882;28;20048;-65
2022/10/25 05:49:14;;;;;;;4.35;2.35;;;;;;;;;;5012142;28;20049;-65
2022/10/25 05:51:40;;;;;;;4.70;3.25;;;;;;;;;;5016612;28;20045;-65
2022/10/25 05:54:08;;;;;;;6.63;3.28;;;;;;;;;;5011738;28;20374;-65
2022/10/25 05:56:35;;;;;;;5.00;3.63;;;;;;;;;;5014922;28;20124;-66
2022/10/25 05:59:02;;;;;;;8.45;4.70;;;;;;;;;;5013511;28;20056;-65
2022/10/25 06:01:28;;;;;;;11.13;4.60;;;;;;;;;;5001099;28;20048;-65
2022/10/25 06:03:54;;;;;;;5.65;3.60;;;;;;;;;;5010155;28;20037;-65
2022/10/25 06:06:21;;;;;;;6.95;3.58;;;;;;;;;;5008715;28;20054;-65
2022/10/25 06:08:47;;;;;;;6.22;4.50;;;;;;;;;;4996395;28;20533;-65
2022/10/25 06:11:15;;;;;;;9.77;4.95;;;;;;;;;;5010799;28;20469;-65
2022/10/25 06:13:41;;;;;;;7.75;4.47;;;;;;;;;;4998774;28;20049;-65
2022/10/25 06:16:11;;;;;;;5.50;3.83;;;;;;;;;;4985560;28;20050;-65
2022/10/25 06:18:37;;;;;;;6.60;4.45;;;;;;;;;;4992939;28;20050;-65
2022/10/25 06:21:04;;;;;;;8.20;4.25;;;;;;;;;;4993370;28;20501;-65
2022/10/25 06:23:30;;;;;;;4.97;3.35;;;;;;;;;;4992069;28;20501;-65
2022/10/25 06:26:00;;;;;;;10.18;4.68;;;;;;;;;;5013130;28;20052;-65
2022/10/25 06:28:27;;;;;;;11.32;5.47;;;;;;;;;;4995341;28;20045;-65
2022/10/25 06:30:53;;;;;;;7.28;3.90;;;;;;;;;;5012392;28;20048;-65
2022/10/25 06:33:19;;;;;;;7.93;4.72;;;;;;;;;;5010955;28;20037;-65
2022/10/25 06:35:45;;;;;;;7.63;4.53;;;;;;;;;;5012760;28;20397;-65
2022/10/25 06:38:11;;;;;;;6.75;4.28;;;;;;;;;;5017567;28;20147;-65
2022/10/25 06:40:37;;;;;;;7.15;3.95;;;;;;;;;;5015954;28;20501;-65
2022/10/25 06:43:03;;;;;;;7.93;3.70;;;;;;;;;;5017716;28;20045;-65
2022/10/25 06:45:29;;;;;;;8.07;3.78;;;;;;;;;;5011132;28;20045;-65
2022/10/25 06:47:55;;;;;;;7.55;3.30;;;;;;;;;;5006731;28;20401;-65
2022/10/25 06:50:21;;;;;;;5.03;3.40;;;;;;;;;;4997842;28;20257;-65
2022/10/25 06:52:47;;;;;;;8.68;3.45;;;;;;;;;;5017661;28;20397;-65
2022/10/25 06:55:13;;;;;;;6.88;3.70;;;;;;;;;;5013594;28;20439;-65
2022/10/25 06:57:39;;;;;;;5.88;3.00;;;;;;;;;;4999778;28;20046;-65
2022/10/25 07:00:06;;;;;;;5.30;2.92;;;;;;;;;;4993268;28;20053;-65
2022/10/25 07:02:32;;;;;;;5.80;2.90;;;;;;;;;;5010659;28;20553;-65
2022/10/25 07:04:58;;;;;;;6.05;3.63;;;;;;;;;;5015680;28;20080;-65
2022/10/25 07:07:24;;;;;;;3.20;2.80;;;;;;;;;;5011593;28;20045;-65
2022/10/25 07:09:50;;;;;;;3.95;2.47;;;;;;;;;;5014672;28;20041;-65
2022/10/25 07:12:16;;;;;;;2.90;2.30;;;;;;;;;;5018136;28;20470;-65
2022/10/25 07:14:42;;;;;;;5.85;3.25;;;;;;;;;;5010901;28;20061;-65
2022/10/25 07:17:08;;;;;;;6.57;3.00;;;;;;;;;;5009980;28;20415;-65
2022/10/25 07:19:34;;;;;;;6.82;2.55;;;;;;;;;;5017128;28;20112;-66
2022/10/25 07:22:00;;;;;;;4.45;2.30;;;;;;;;;;5016974;28;20096;-65
2022/10/25 07:24:26;;;;;;;5.07;2.45;;;;;;;;;;4987635;28;20041;-64
2022/10/25 07:26:52;;;;;;;5.50;2.70;;;;;;;;;;5011497;28;20042;-64
2022/10/25 07:29:18;;;;;;;4.68;2.33;;;;;;;;;;5008913;28;20041;-64
2022/10/25 07:31:44;;;;;;;6.80;2.58;;;;;;;;;;4989988;28;20124;-64
2022/10/25 07:34:13;;;;;;;7.78;2.55;;;;;;;;;;5015082;28;20081;-64
2022/10/25 07:36:39;;;;;;;4.93;2.17;;;;;;;;;;5003609;28;20060;-65
2022/10/25 07:39:05;;;;;;;4.90;2.05;;;;;;;;;;4992613;28;20088;-65
2022/10/25 07:41:31;;;;;;;5.03;2.33;;;;;;;;;;4994002;28;20950;-62
2022/10/25 07:43:57;;;;;;;4.22;2.42;;;;;;;;;;4991528;28;20041;-63
2022/10/25 07:46:23;;;;;;;5.72;2.28;;;;;;;;;;4995190;28;20050;-63
2022/10/25 07:48:51;;;;;;;4.85;1.90;;;;;;;;;;5011254;28;20037;-62
2022/10/25 07:51:18;;;;;;;4.28;1.88;;;;;;;;;;5003624;28;20493;-63
2022/10/25 07:53:44;;;;;;;6.20;2.25;;;;;;;;;;5007416;28;20546;-63
2022/10/25 07:56:13;;;;;;;9.52;2.97;;;;;;;;;;5005799;28;20084;-63
2022/10/25 07:58:39;;;;;;;4.22;1.75;;;;;;;;;;4989144;28;20072;-62
2022/10/25 08:01:07;;;;;;;6.10;2.40;;;;;;;;;;4995899;28;20050;-63
2022/10/25 08:03:33;;;;;;;4.63;2.33;;;;;;;;;;5010188;28;20052;-63
2022/10/25 08:05:59;;;;;;;3.38;1.80;;;;;;;;;;5016309;28;20041;-63
2022/10/25 08:08:25;;;;;;;4.07;2.00;;;;;;;;;;5000883;28;20656;-63
2022/10/25 08:10:51;;;;;;;4.03;1.90;;;;;;;;;;5007209;28;20050;-63
2022/10/25 08:13:18;;;;;;;3.70;1.83;;;;;;;;;;4999612;28;20551;-63
2022/10/25 08:15:54;;;;;;;5.03;1.98;;;;;;;;;;4996746;28;20057;-63
2022/10/25 08:18:20;;;;;;;10.65;2.88;;;;;;;;;;5010530;28;20054;-63
2022/10/25 08:20:46;;;;;;;5.95;2.78;;;;;;;;;;4996087;28;20485;-63
2022/10/25 08:23:12;;;;;;;6.05;2.90;;;;;;;;;;5014903;28;20042;-63
2022/10/25 08:25:38;;;;;;;3.90;1.98;;;;;;;;;;4997343;28;20511;-63
2022/10/25 08:28:04;;;;;;;6.72;3.10;;;;;;;;;;5004437;28;20046;-63
2022/10/25 08:30:31;;;;;;;6.50;2.65;;;;;;;;;;5004882;28;20287;-64
2022/10/25 08:32:57;;;;;;;5.28;2.28;;;;;;;;;;4988035;28;20050;-63
2022/10/25 08:35:22;;;;;;;7.55;3.08;;;;;;;;;;5008070;28;20184;-63
2022/10/25 08:37:48;;;;;;;5.53;2.85;;;;;;;;;;5008679;28;20050;-63
2022/10/25 08:40:24;;;;;;;7.35;2.97;;;;;;;;;;4990098;28;20592;-63
2022/10/25 08:42:53;;;;;;;7.18;2.75;;;;;;;;;;5008895;28;20408;-62
2022/10/25 08:45:28;;;;;;;7.38;3.20;;;;;;;;;;5008416;28;20041;-63
2022/10/25 08:47:55;;;;;;;6.22;2.70;;;;;;;;;;4990890;28;20053;-62
2022/10/25 08:50:21;;;;;;;8.18;3.10;;;;;;;;;;4990686;28;20107;-64
2022/10/25 08:53:08;;;;;;;5.88;2.97;;;;;;;;;;4991071;28;20420;-67
2022/10/25 08:55:35;;;;;;;12.93;4.57;;;;;;;;;;5008175;28;20054;-62
2022/10/25 08:58:03;;;;;;;10.40;3.95;;;;;;;;;;5007831;28;20061;-63
2022/10/25 09:00:31;;;;;;;5.82;3.10;;;;;;;;;;4990711;28;20053;-63
2022/10/25 09:03:01;;;;;;;7.38;3.45;;;;;;;;;;5027952;28;20041;-63
2022/10/25 09:05:34;;;;;;;8.35;3.30;;;;;;;;;;4992237;28;20045;-63
2022/10/25 09:08:09;;;;;;;10.20;3.60;;;;;;;;;;5005950;28;20049;-63
2022/10/25 09:10:50;;;;;;;6.70;3.10;;;;;;;;;;4999270;28;20061;-63
2022/10/25 09:13:29;;;;;;;8.00;3.30;;;;;;;;;;5009636;28;20053;-63
2022/10/25 09:16:00;;;;;;;11.73;3.88;;;;;;;;;;4987581;28;20061;-63
2022/10/25 09:18:46;;;;;;;9.68;3.30;;;;;;;;;;5014593;28;20064;-63
2022/10/25 09:21:15;;;;;;;10.27;3.78;;;;;;;;;;4985506;28;20053;-63
2022/10/25 09:23:44;;;;;;;11.57;4.03;;;;;;;;;;5003528;28;20103;-63
2022/10/25 09:26:15;;;;;;;4.63;2.80;;;;;;;;;;4997664;28;20475;-63
2022/10/25 09:28:53;;;;;;;8.27;4.17;;;;;;;;;;5020670;28;20046;-63
2022/10/25 09:31:22;;;;;;;6.63;3.53;;;;;;;;;;5010190;28;20303;-63
2022/10/25 09:33:50;;;;;;;12.18;3.90;;;;;;;;;;4991660;28;20042;-63
2022/10/25 09:36:16;;;;;;;9.85;4.20;;;;;;;;;;5002834;28;20104;-64
2022/10/25 09:38:42;;;;;;;8.90;4.15;;;;;;;;;;4990595;28;20547;-63
2022/10/25 09:41:15;;;;;;;5.78;3.00;;;;;;;;;;4987240;28;20058;-64
2022/10/25 09:43:58;;;;;;;9.63;3.72;;;;;;;;;;4987401;28;20049;-64
2022/10/25 09:46:32;;;;;;;8.90;3.63;;;;;;;;;;4984700;28;20427;-63
2022/10/25 09:49:01;;;;;;;7.40;2.97;;;;;;;;;;4990064;28;20064;-64
2022/10/25 09:51:42;;;;;;;6.80;2.90;;;;;;;;;;4991977;28;20688;-64
2022/10/25 09:54:17;;;;;;;6.70;2.80;;;;;;;;;;5009463;28;20160;-64
2022/10/25 09:56:43;;;;;;;5.55;2.97;;;;;;;;;;5008840;28;20099;-64
2022/10/25 09:59:13;;;;;;;8.70;3.70;;;;;;;;;;5024240;28;20063;-63
2022/10/25 10:01:40;;;;;;;5.40;2.90;;;;;;;;;;4998863;28;20080;-64
2022/10/25 10:04:23;;;;;;;12.52;3.47;;;;;;;;;;5007698;28;20065;-63
2022/10/25 10:06:51;;;;;;;6.57;2.50;;;;;;;;;;4998658;28;20081;-63
2022/10/25 10:09:17;;;;;;;7.22;2.50;;;;;;;;;;4989584;28;20041;-63
2022/10/25 10:11:46;;;;;;;7.30;2.22;;;;;;;;;;4980516;28;20037;-63
2022/10/25 10:14:31;;;;;;;7.60;2.17;;;;;;;;;;4991103;28;20494;-63
2022/10/25 10:16:57;;;;;;;5.47;1.77;;;;;;;;;;5003923;28;20176;-63
2022/10/25 10:19:24;;;;;;;8.70;1.88;;;;;;;;;;5011018;28;20057;-63
2022/10/25 10:21:54;;;;;;;6.30;2.08;;;;;;;;;;5008814;28;20136;-63
2022/10/25 10:24:22;;;;;;;7.55;1.83;;;;;;;;;;4992633;28;20497;-64
2022/10/25 10:26:54;;;;;;;10.00;2.40;;;;;;;;;;4992809;28;20037;-64
2022/10/25 10:29:34;;;;;;;5.45;2.15;;;;;;;;;;4987109;28;20057;-64
2022/10/25 10:32:03;;;;;;;7.53;1.85;;;;;;;;;;5012220;28;20104;-64
2022/10/25 10:34:30;;;;;;;5.00;1.77;;;;;;;;;;4977928;28;20054;-63
2022/10/25 10:37:13;;;;;;;4.40;2.03;;;;;;;;;;4971921;28;20061;-64
2022/10/25 10:40:06;;;;;;;6.03;1.60;;;;;;;;;;5001714;28;20049;-64
2022/10/25 10:42:36;;;;;;;11.38;2.78;;;;;;;;;;4959300;28;20062;-63
2022/10/25 10:45:08;;;;;;;10.35;2.25;;;;;;;;;;4989466;28;20133;-64
2022/10/25 10:47:36;;;;;;;6.43;1.77;;;;;;;;;;5002660;28;20049;-63
2022/10/25 10:50:10;;;;;;;3.15;1.05;;;;;;;;;;4989547;28;20443;-63
2022/10/25 10:52:39;;;;;;;6.18;1.38;;;;;;;;;;5005299;28;20535;-63
2022/10/25 10:55:14;;;;;;;7.03;1.77;;;;;;;;;;4989228;28;20532;-63
2022/10/25 10:57:40;;;;;;;8.15;2.22;;;;;;;;;;5005687;28;20046;-63
2022/10/25 11:00:06;;;;;;;11.70;2.10;;;;;;;;;;5005727;28;20091;-64
2022/10/25 11:02:40;;;;;;;7.95;2.20;;;;;;;;;;5006405;28;20069;-63
2022/10/25 11:05:33;;;;;;;10.45;2.40;;;;;;;;;;4999127;28;20042;-63
2022/10/25 11:08:01;;;;;;;5.03;1.60;;;;;;;;;;4988333;28;20050;-62
2022/10/25 11:10:36;;;;;;;6.72;1.77;;;;;;;;;;4984208;28;20054;-62
2022/10/25 11:13:10;;;;;;;5.60;1.85;;;;;;;;;;4982004;28;20492;-63
2022/10/25 11:15:55;;;;;;;3.92;1.50;;;;;;;;;;5001287;28;20521;-63
2022/10/25 11:18:40;;;;;;;10.48;1.65;;;;;;;;;;4975517;28;20101;-63
2022/10/25 11:21:19;;;;;;;8.27;2.15;;;;;;;;;;4986240;28;20042;-63
2022/10/25 11:23:57;;;;;;;8.32;1.60;;;;;;;;;;4984809;28;20062;-63
2022/10/25 11:26:31;;;;;;;5.05;1.75;;;;;;;;;;4994055;28;20038;-64
2022/10/25 11:29:15;;;;;;;5.53;1.55;;;;;;;;;;4989586;28;20042;-65
2022/10/25 11:31:56;;;;;;;7.22;1.40;;;;;;;;;;4989706;28;20046;-64
2022/10/25 11:34:41;;;;;;;4.32;1.55;;;;;;;;;;4989638;28;20042;-65
2022/10/25 11:37:13;;;;;;;6.55;1.98;;;;;;;;;;4989921;28;20103;-65
2022/10/25 11:39:42;;;;;;;4.32;1.13;;;;;;;;;;4972635;28;20444;-64
2022/10/25 11:42:18;;;;;;;4.72;1.40;;;;;;;;;;4989264;28;20042;-65
2022/10/25 11:44:44;;;;;;;2.97;1.20;;;;;;;;;;4989949;28;20370;-67
2022/10/25 11:47:28;;;;;;;6.53;1.67;;;;;;;;;;4989653;28;20054;-65
2022/10/25 11:50:13;;;;;;;4.97;1.60;;;;;;;;;;4971727;28;20054;-65
2022/10/25 11:52:49;;;;;;;6.03;1.42;;;;;;;;;;4972058;28;20127;-65
2022/10/25 11:55:28;;;;;;;2.90;1.20;;;;;;;;;;4972652;28;20050;-66
2022/10/25 11:58:18;;;;;;;4.65;1.70;;;;;;;;;;4989462;28;20497;-65
2022/10/25 12:00:56;;;;;;;6.78;1.63;;;;;;;;;;4990216;28;20097;-65
2022/10/25 12:03:42;;;;;;;5.53;1.60;;;;;;;;;;4971695;28;20054;-66
2022/10/25 12:06:37;;;;;;;8.25;1.77;;;;;;;;;;4972466;28;20050;-66
2022/10/25 12:09:10;;;;;;;3.20;1.73;;;;;;;;;;4961098;28;20405;-66
2022/10/25 12:11:39;;;;;;;6.60;1.85;;;;;;;;;;4971430;28;20052;-65
2022/10/25 12:14:07;;;;;;;4.07;1.33;;;;;;;;;;4973101;28;20054;-66
2022/10/25 12:16:34;;;;;;;6.13;1.88;;;;;;;;;;4989752;28;20073;-66
2022/10/25 12:19:21;;;;;;;5.28;1.60;;;;;;;;;;4972065;28;20073;-65
2022/10/25 12:22:03;;;;;;;3.75;1.50;;;;;;;;;;4972380;28;20051;-63
2022/10/25 12:24:34;;;;;;;3.10;1.10;;;;;;;;;;4988494;28;20042;-63
2022/10/25 12:27:01;;;;;;;4.97;1.45;;;;;;;;;;4989727;28;20348;-64
2022/10/25 12:29:35;;;;;;;2.75;1.10;;;;;;;;;;4971630;28;20576;-64
2022/10/25 12:32:02;;;;;;;5.90;1.33;;;;;;;;;;4971621;28;20058;-64
2022/10/25 12:34:41;;;;;;;6.07;1.65;;;;;;;;;;4988960;28;20133;-64
2022/10/25 12:37:16;;;;;;;2.75;1.20;;;;;;;;;;4989114;28;20050;-64
2022/10/25 12:39:43;;;;;;;5.85;1.60;;;;;;;;;;4987489;28;20046;-64
2022/10/25 12:42:12;;;;;;;6.47;1.95;;;;;;;;;;4989327;28;20046;-64
2022/10/25 12:44:41;;;;;;;6.53;1.75;;;;;;;;;;4971963;28;20054;-64
2022/10/25 12:47:16;;;;;;;5.38;1.60;;;;;;;;;;4988523;28;20180;-64
2022/10/25 12:50:05;;;;;;;3.88;1.33;;;;;;;;;;4989232;28;20432;-64
2022/10/25 12:52:50;;;;;;;2.58;1.13;;;;;;;;;;4960556;28;20109;-64
2022/10/25 12:55:16;;;;;;;5.47;1.80;;;;;;;;;;4988801;28;20047;-64
2022/10/25 12:57:59;;;;;;;5.03;1.75;;;;;;;;;;4971239;28;20058;-64
2022/10/25 13:00:29;;;;;;;2.67;1.38;;;;;;;;;;4987776;28;20081;-64
2022/10/25 13:03:08;;;;;;;3.08;1.30;;;;;;;;;;4988743;28;20046;-64
2022/10/25 13:05:49;;;;;;;3.85;1.85;;;;;;;;;;4971454;28;20057;-64
2022/10/25 13:08:16;;;;;;;6.75;2.45;;;;;;;;;;4970379;28;20054;-64
2022/10/25 13:10:44;;;;;;;4.50;2.10;;;;;;;;;;4988562;28;20070;-64
2022/10/25 13:13:23;;;;;;;5.32;2.42;;;;;;;;;;4970670;28;20054;-64
2022/10/25 13:15:51;;;;;;;8.90;2.20;;;;;;;;;;4971063;28;20066;-64
2022/10/25 13:18:32;;;;;;;5.15;1.92;;;;;;;;;;4970897;28;20560;-64
2022/10/25 13:20:59;;;;;;;6.68;2.10;;;;;;;;;;4970840;28;20078;-64
2022/10/25 13:23:50;;;;;;;5.63;1.80;;;;;;;;;;4970947;28;20364;-64
2022/10/25 13:26:18;;;;;;;5.05;2.30;;;;;;;;;;4971072;28;20644;-64
2022/10/25 13:28:48;;;;;;;6.72;2.50;;;;;;;;;;4970356;28;20054;-64
2022/10/25 13:31:29;;;;;;;4.10;2.13;;;;;;;;;;4971055;28;20053;-64
2022/10/25 13:34:11;;;;;;;9.75;2.72;;;;;;;;;;4988266;28;20587;-64
2022/10/25 13:36:50;;;;;;;5.70;2.37;;;;;;;;;;4988140;28;20532;-64
2022/10/25 13:39:22;;;;;;;3.42;1.83;;;;;;;;;;4987676;28;20386;-64
2022/10/25 13:41:48;;;;;;;5.63;2.30;;;;;;;;;;4987554;28;20046;-64
2022/10/25 13:44:24;;;;;;;6.88;2.10;;;;;;;;;;4970534;28;20128;-64
2022/10/25 13:46:51;;;;;;;4.97;1.95;;;;;;;;;;4970697;28;20055;-64
2022/10/25 13:49:28;;;;;;;3.90;2.15;;;;;;;;;;4969207;28;20076;-64
2022/10/25 13:51:55;;;;;;;8.60;2.33;;;;;;;;;;4970614;28;20098;-64
2022/10/25 13:54:21;;;;;;;6.75;2.80;;;;;;;;;;4976741;28;20038;-64
2022/10/25 13:56:52;;;;;;;5.90;2.75;;;;;;;;;;5006141;28;20378;-64
2022/10/25 13:59:35;;;;;;;4.45;2.30;;;;;;;;;;4988167;28;20060;-64
2022/10/25 14:02:15;;;;;;;3.40;2.20;;;;;;;;;;4990260;28;20061;-64
2022/10/25 14:04:41;;;;;;;6.55;3.15;;;;;;;;;;4989115;28;20050;-64
2022/10/25 14:07:26;;;;;;;3.90;2.88;;;;;;;;;;5007247;28;20132;-64
2022/10/25 14:09:52;;;;;;;5.57;2.50;;;;;;;;;;4989235;28;20045;-64
2022/10/25 14:12:19;;;;;;;4.93;2.60;;;;;;;;;;4989270;28;20046;-64
2022/10/25 14:14:51;;;;;;;7.88;3.30;;;;;;;;;;5005374;28;20049;-64
2022/10/25 14:17:17;;;;;;;;;;;;;;;;;;4984373;28;20058;-61
2022/10/25 14:19:45;;;;;;;3.00;2.58;;;;;;;;;;4986461;28;19929;-61
2022/10/25 14:22:15;;;;;;;5.82;2.80;;;;;;;;;;4993228;28;20038;-61
2022/10/25 14:24:42;;;;;;;5.57;2.97;;;;;;;;;;4997831;28;20088;-61
2022/10/25 14:27:26;;;;;;;6.28;3.05;;;;;;;;;;5001892;28;20145;-61
2022/10/25 14:29:53;;;;;;;7.15;3.80;;;;;;;;;;4999662;28;20093;-61
2022/10/25 14:32:20;;;;;;;5.22;2.95;;;;;;;;;;5005508;28;20037;-61
2022/10/25 14:34:50;;;;;;;3.30;2.75;;;;;;;;;;4989051;28;20524;-61
2022/10/25 14:37:16;;;;;;;5.82;2.80;;;;;;;;;;5003603;28;20374;-61
2022/10/25 14:39:52;;;;;;;6.10;3.13;;;;;;;;;;4976660;28;20065;-61
2022/10/25 14:42:18;;;;;;;4.97;2.50;;;;;;;;;;4993149;28;20129;-61
2022/10/25 14:44:45;;;;;;;5.95;2.45;;;;;;;;;;4968874;28;20553;-61
2022/10/25 14:47:27;;;;;;;6.55;2.38;;;;;;;;;;4986920;28;20049;-61
2022/10/25 14:49:53;;;;;;;3.88;2.40;;;;;;;;;;4998041;28;20042;-61
2022/10/25 14:52:19;;;;;;;3.75;2.53;;;;;;;;;;4986022;28;20060;-61
2022/10/25 14:54:47;;;;;;;3.17;2.00;;;;;;;;;;4969440;28;20557;-61
2022/10/25 14:57:16;;;;;;;4.47;2.72;;;;;;;;;;4969072;28;20078;-61
2022/10/25 14:59:49;;;;;;;7.57;3.22;;;;;;;;;;4969742;28;20054;-61